• Join FlightAware (Why Join?)
  • Login
  • US Flag 
01:02AM EDT


 

Airport Tracker/Info


-or-


 

Live Flight TrackerFlight Track Log ✈ FLG4081 ✈ 18-Apr-2013 ✈ KDTW - KAZO

Flight Track Log - Related Links

Times and Time Zones

All times are in EDT time to prevent confusion due to time zone crossing. See the FLG4081 flight status page for this flight to view local times or setup timezone preferences in your user account.

Time Position Orientation Groundspeed Altitude Reporting Facility
EDT Latitude Longitude Course Direction KTS MPH feet Rate Location/Type
10:08PM 42.2036 -83.3556 276° West 139 160 1,400  Level Cleveland Center
10:09PM 42.1739 -83.3767 208° Southwest 196 226 2,500 1,560 Climbing Cleveland Center
10:10PM 42.1167 -83.4217 210° Southwest 243 280 4,500 2,280 Climbing Cleveland Center
10:11PM 42.1167 -83.4972 270° West 245 282 7,100 2,460 Climbing Cleveland Center
10:12PM 42.2251 -83.7666 276° West  Level FlightAware Approximate
10:12PM 42.1392 -83.5964 287° West 272 313 9,500  Level Cleveland Center
10:13PM 42.2322 -83.8665 276° West  Level FlightAware Approximate
10:14PM 42.2393 -83.9663 276° West  Level FlightAware Approximate
10:14PM 42.1761 -83.7775 285° West 316 364 11,600  Level Cleveland Center
10:15PM 42.1997 -83.8992 285° West 328 377 12,000 180 Climbing Cleveland Center
10:16PM 42.2256 -84.0156 287° West 328 377 12,000  Level Cleveland Center
10:17PM 42.2508 -84.1375 286° West 328 377 12,100  Climbing Cleveland Center
10:18PM 42.2619 -84.2533 277° West 321 369 12,000 -600 Descending Cleveland Center
10:19PM 42.2606 -84.3625 269° West 309 356 11,000 -540 Descending Cleveland Center
10:20PM 42.2586 -84.4775 269° West 309 356 11,000  Level Cleveland Center
10:22PM 42.2553 -84.6661 269° West 304 350 11,000  Level Chicago Center
10:23PM 42.2531 -84.7797 269° West 304 350 11,000  Level Chicago Center
10:24PM 42.2506 -84.9172 269° West 305 351 11,000 -600 Level Chicago Center
10:25PM 42.2483 -85.0203 268° West 285 328 9,800 -1,440 Descending Chicago Center
10:26PM 42.2822 -85.1081 298° West 280 322 8,100 -1,560 Descending Chicago Center
10:27PM 42.3244 -85.1894 305° West 269 310 6,700 -1,380 Descending Chicago Center
10:28PM 42.3689 -85.2661 308° West 261 300 5,300 -1,380 Descending Chicago Center
10:29PM 42.4111 -85.3433 307° West 257 296 3,900 -1,200 Descending Chicago Center
10:30PM 42.4531 -85.4208 306° West 257 296 2,900 -1,020 Descending Chicago Center